sensor_id;sensor_type;location;lat;lon;timestamp;pressure;altitude;pressure_sealevel;temperature;humidity
73085;BME280;62974;49.460;10.892;2024-03-07T00:02:09;98375.34;;;4.47;100.00
73085;BME280;62974;49.460;10.892;2024-03-07T00:04:37;98376.09;;;4.39;100.00
73085;BME280;62974;49.460;10.892;2024-03-07T00:07:06;98374.06;;;4.51;100.00
73085;BME280;62974;49.460;10.892;2024-03-07T00:09:34;98367.22;;;4.21;100.00
73085;BME280;62974;49.460;10.892;2024-03-07T00:12:02;98369.06;;;4.48;100.00
73085;BME280;62974;49.460;10.892;2024-03-07T00:14:31;98367.53;;;4.45;100.00
73085;BME280;62974;49.460;10.892;2024-03-07T00:17:01;98366.09;;;4.51;100.00
73085;BME280;62974;49.460;10.892;2024-03-07T00:19:30;98362.91;;;4.47;100.00
73085;BME280;62974;49.460;10.892;2024-03-07T00:21:58;98370.47;;;4.42;100.00
73085;BME280;62974;49.460;10.892;2024-03-07T00:24:27;98366.00;;;4.43;100.00
73085;BME280;62974;49.460;10.892;2024-03-07T00:26:54;98369.84;;;4.31;100.00
73085;BME280;62974;49.460;10.892;2024-03-07T00:29:23;98364.06;;;4.35;100.00
73085;BME280;62974;49.460;10.892;2024-03-07T00:31:52;98368.81;;;4.41;100.00
73085;BME280;62974;49.460;10.892;2024-03-07T00:34:20;98367.72;;;4.34;100.00
73085;BME280;62974;49.460;10.892;2024-03-07T00:36:51;98364.94;;;4.26;100.00
73085;BME280;62974;49.460;10.892;2024-03-07T00:39:25;98358.13;;;4.23;100.00
73085;BME280;62974;49.460;10.892;2024-03-07T00:41:54;98353.25;;;4.19;100.00
73085;BME280;62974;49.460;10.892;2024-03-07T00:44:24;98355.06;;;4.18;100.00
73085;BME280;62974;49.460;10.892;2024-03-07T00:46:53;98350.03;;;4.15;100.00
73085;BME280;62974;49.460;10.892;2024-03-07T00:49:21;98344.00;;;4.23;100.00
73085;BME280;62974;49.460;10.892;2024-03-07T00:51:48;98343.03;;;4.14;100.00
73085;BME280;62974;49.460;10.892;2024-03-07T00:54:16;98348.13;;;4.08;100.00
73085;BME280;62974;49.460;10.892;2024-03-07T00:56:45;98343.53;;;4.00;100.00
73085;BME280;62974;49.460;10.892;2024-03-07T00:59:18;98342.28;;;3.95;100.00
73085;BME280;62974;49.460;10.892;2024-03-07T01:01:46;98341.72;;;4.01;100.00
73085;BME280;62974;49.460;10.892;2024-03-07T01:04:15;98341.28;;;4.05;100.00
73085;BME280;62974;49.460;10.892;2024-03-07T01:06:43;98341.41;;;4.04;100.00
73085;BME280;62974;49.460;10.892;2024-03-07T01:09:11;98340.88;;;4.00;100.00
73085;BME280;62974;49.460;10.892;2024-03-07T01:11:43;98340.22;;;3.89;100.00
73085;BME280;62974;49.460;10.892;2024-03-07T01:14:11;98332.81;;;3.92;100.00
73085;BME280;62974;49.460;10.892;2024-03-07T01:16:42;98331.97;;;3.92;100.00
73085;BME280;62974;49.460;10.892;2024-03-07T01:19:10;98336.75;;;3.78;100.00
73085;BME280;62974;49.460;10.892;2024-03-07T01:21:37;98328.66;;;3.80;100.00
73085;BME280;62974;49.460;10.892;2024-03-07T01:24:05;98335.78;;;3.79;100.00
73085;BME280;62974;49.460;10.892;2024-03-07T01:26:33;98338.38;;;3.43;100.00
73085;BME280;62974;49.460;10.892;2024-03-07T01:29:01;98328.22;;;3.85;100.00
73085;BME280;62974;49.460;10.892;2024-03-07T01:31:29;98326.25;;;3.30;100.00
73085;BME280;62974;49.460;10.892;2024-03-07T01:33:57;98335.13;;;3.58;100.00
73085;BME280;62974;49.460;10.892;2024-03-07T01:36:28;98326.94;;;3.42;100.00
73085;BME280;62974;49.460;10.892;2024-03-07T01:38:56;98325.69;;;3.37;100.00
73085;BME280;62974;49.460;10.892;2024-03-07T01:41:24;98324.03;;;3.16;100.00
73085;BME280;62974;49.460;10.892;2024-03-07T01:43:51;98328.38;;;2.69;100.00
73085;BME280;62974;49.460;10.892;2024-03-07T01:46:19;98326.94;;;1.97;100.00
73085;BME280;62974;49.460;10.892;2024-03-07T01:48:49;98314.53;;;1.97;100.00
73085;BME280;62974;49.460;10.892;2024-03-07T01:51:19;98311.38;;;1.73;100.00
73085;BME280;62974;49.460;10.892;2024-03-07T01:53:48;98311.38;;;2.13;100.00
73085;BME280;62974;49.460;10.892;2024-03-07T01:56:16;98307.00;;;3.00;100.00
73085;BME280;62974;49.460;10.892;2024-03-07T01:58:47;98299.75;;;3.21;100.00
73085;BME280;62974;49.460;10.892;2024-03-07T02:01:14;98307.28;;;2.68;100.00
73085;BME280;62974;49.460;10.892;2024-03-07T02:03:43;98309.38;;;2.83;100.00
73085;BME280;62974;49.460;10.892;2024-03-07T02:06:11;98307.16;;;2.69;100.00
73085;BME280;62974;49.460;10.892;2024-03-07T02:08:40;98300.28;;;2.48;100.00
73085;BME280;62974;49.460;10.892;2024-03-07T02:11:08;98300.59;;;3.21;100.00
73085;BME280;62974;49.460;10.892;2024-03-07T02:13:37;98306.28;;;2.30;100.00
73085;BME280;62974;49.460;10.892;2024-03-07T02:16:05;98301.56;;;2.72;100.00
73085;BME280;62974;49.460;10.892;2024-03-07T02:18:33;98301.88;;;2.01;100.00
73085;BME280;62974;49.460;10.892;2024-03-07T02:21:07;98295.94;;;2.18;100.00
73085;BME280;62974;49.460;10.892;2024-03-07T02:23:35;98293.56;;;2.24;100.00
73085;BME280;62974;49.460;10.892;2024-03-07T02:26:03;98282.31;;;2.99;100.00
73085;BME280;62974;49.460;10.892;2024-03-07T02:28:30;98287.34;;;3.02;100.00
73085;BME280;62974;49.460;10.892;2024-03-07T02:30:58;98282.75;;;3.51;100.00
73085;BME280;62974;49.460;10.892;2024-03-07T02:33:25;98273.94;;;3.60;100.00
73085;BME280;62974;49.460;10.892;2024-03-07T02:35:53;98292.78;;;2.72;100.00
73085;BME280;62974;49.460;10.892;2024-03-07T02:38:22;98286.88;;;1.80;100.00
73085;BME280;62974;49.460;10.892;2024-03-07T02:40:50;98272.53;;;3.00;100.00
73085;BME280;62974;49.460;10.892;2024-03-07T02:43:18;98274.75;;;3.04;100.00
73085;BME280;62974;49.460;10.892;2024-03-07T02:45:47;98275.75;;;2.84;100.00
73085;BME280;62974;49.460;10.892;2024-03-07T02:48:16;98260.28;;;3.45;100.00
73085;BME280;62974;49.460;10.892;2024-03-07T02:50:45;98276.19;;;2.51;100.00
73085;BME280;62974;49.460;10.892;2024-03-07T02:53:14;98268.91;;;3.01;100.00
73085;BME280;62974;49.460;10.892;2024-03-07T02:55:43;98265.84;;;2.96;100.00
73085;BME280;62974;49.460;10.892;2024-03-07T02:58:10;98262.63;;;2.25;100.00
73085;BME280;62974;49.460;10.892;2024-03-07T03:00:41;98267.97;;;2.54;100.00
73085;BME280;62974;49.460;10.892;2024-03-07T03:03:09;98255.38;;;2.94;100.00
73085;BME280;62974;49.460;10.892;2024-03-07T03:05:36;98270.47;;;2.84;100.00
73085;BME280;62974;49.460;10.892;2024-03-07T03:08:05;98270.09;;;3.35;100.00
73085;BME280;62974;49.460;10.892;2024-03-07T03:10:33;98254.13;;;3.54;100.00
73085;BME280;62974;49.460;10.892;2024-03-07T03:13:03;98271.13;;;3.05;100.00
73085;BME280;62974;49.460;10.892;2024-03-07T03:15:31;98259.75;;;3.32;100.00
73085;BME280;62974;49.460;10.892;2024-03-07T03:17:59;98268.63;;;2.56;100.00
73085;BME280;62974;49.460;10.892;2024-03-07T03:20:27;98267.34;;;2.21;100.00
73085;BME280;62974;49.460;10.892;2024-03-07T03:23:01;98262.94;;;2.70;100.00
73085;BME280;62974;49.460;10.892;2024-03-07T03:25:45;98269.44;;;2.18;100.00
73085;BME280;62974;49.460;10.892;2024-03-07T03:28:18;98264.03;;;2.39;100.00
73085;BME280;62974;49.460;10.892;2024-03-07T03:30:51;98265.28;;;2.44;100.00
73085;BME280;62974;49.460;10.892;2024-03-07T03:33:22;98269.03;;;2.22;100.00
73085;BME280;62974;49.460;10.892;2024-03-07T03:35:49;98268.09;;;2.52;100.00
73085;BME280;62974;49.460;10.892;2024-03-07T03:38:17;98265.56;;;2.22;100.00
73085;BME280;62974;49.460;10.892;2024-03-07T03:40:46;98260.09;;;2.14;100.00
73085;BME280;62974;49.460;10.892;2024-03-07T03:43:14;98249.88;;;1.60;100.00
73085;BME280;62974;49.460;10.892;2024-03-07T03:45:43;98255.63;;;1.65;100.00
73085;BME280;62974;49.460;10.892;2024-03-07T03:48:11;98258.00;;;1.68;100.00
73085;BME280;62974;49.460;10.892;2024-03-07T03:50:40;98257.56;;;2.12;100.00
73085;BME280;62974;49.460;10.892;2024-03-07T03:53:07;98254.31;;;1.99;100.00
73085;BME280;62974;49.460;10.892;2024-03-07T03:55:35;98255.25;;;2.48;100.00
73085;BME280;62974;49.460;10.892;2024-03-07T03:58:03;98252.03;;;2.92;100.00
73085;BME280;62974;49.460;10.892;2024-03-07T04:00:32;98264.56;;;2.13;100.00
73085;BME280;62974;49.460;10.892;2024-03-07T04:03:01;98256.75;;;1.62;100.00
73085;BME280;62974;49.460;10.892;2024-03-07T04:05:29;98256.44;;;2.05;100.00
73085;BME280;62974;49.460;10.892;2024-03-07T04:07:57;98257.47;;;2.33;100.00
73085;BME280;62974;49.460;10.892;2024-03-07T04:10:26;98255.25;;;2.57;100.00
73085;BME280;62974;49.460;10.892;2024-03-07T04:12:53;98262.66;;;2.73;100.00
73085;BME280;62974;49.460;10.892;2024-03-07T04:15:21;98253.66;;;3.22;100.00
73085;BME280;62974;49.460;10.892;2024-03-07T04:17:53;98267.00;;;2.55;100.00
73085;BME280;62974;49.460;10.892;2024-03-07T04:20:22;98265.16;;;2.55;100.00
73085;BME280;62974;49.460;10.892;2024-03-07T04:22:51;98261.75;;;3.30;100.00
73085;BME280;62974;49.460;10.892;2024-03-07T04:25:19;98261.69;;;3.40;100.00
73085;BME280;62974;49.460;10.892;2024-03-07T04:27:46;98263.38;;;3.50;100.00
73085;BME280;62974;49.460;10.892;2024-03-07T04:30:16;98253.97;;;3.56;100.00
73085;BME280;62974;49.460;10.892;2024-03-07T04:32:44;98257.31;;;3.58;100.00
73085;BME280;62974;49.460;10.892;2024-03-07T04:35:12;98263.75;;;3.55;100.00
73085;BME280;62974;49.460;10.892;2024-03-07T04:37:46;98260.78;;;3.58;100.00
73085;BME280;62974;49.460;10.892;2024-03-07T04:40:16;98266.56;;;3.54;100.00
73085;BME280;62974;49.460;10.892;2024-03-07T04:42:46;98262.09;;;3.54;100.00
73085;BME280;62974;49.460;10.892;2024-03-07T04:45:15;98263.91;;;3.54;100.00
73085;BME280;62974;49.460;10.892;2024-03-07T04:47:46;98258.44;;;3.55;100.00
73085;BME280;62974;49.460;10.892;2024-03-07T04:50:15;98259.69;;;3.51;100.00
73085;BME280;62974;49.460;10.892;2024-03-07T04:52:48;98261.25;;;3.54;100.00
73085;BME280;62974;49.460;10.892;2024-03-07T04:55:19;98261.38;;;3.52;100.00
73085;BME280;62974;49.460;10.892;2024-03-07T04:57:47;98266.56;;;3.54;100.00
73085;BME280;62974;49.460;10.892;2024-03-07T05:00:15;98267.84;;;3.50;100.00
73085;BME280;62974;49.460;10.892;2024-03-07T05:02:48;98263.63;;;3.47;100.00
73085;BME280;62974;49.460;10.892;2024-03-07T05:05:16;98272.72;;;3.45;100.00
73085;BME280;62974;49.460;10.892;2024-03-07T05:07:50;98267.72;;;3.42;100.00
73085;BME280;62974;49.460;10.892;2024-03-07T05:10:19;98278.59;;;3.39;100.00
73085;BME280;62974;49.460;10.892;2024-03-07T05:12:47;98274.28;;;3.38;100.00
73085;BME280;62974;49.460;10.892;2024-03-07T05:15:15;98262.25;;;3.43;100.00
73085;BME280;62974;49.460;10.892;2024-03-07T05:17:44;98275.81;;;3.40;100.00
73085;BME280;62974;49.460;10.892;2024-03-07T05:20:12;98273.44;;;3.37;100.00
73085;BME280;62974;49.460;10.892;2024-03-07T05:22:42;98271.78;;;3.36;100.00
73085;BME280;62974;49.460;10.892;2024-03-07T05:25:15;98278.34;;;3.32;100.00
73085;BME280;62974;49.460;10.892;2024-03-07T05:27:45;98278.38;;;3.22;100.00
73085;BME280;62974;49.460;10.892;2024-03-07T05:30:13;98274.97;;;3.40;100.00
73085;BME280;62974;49.460;10.892;2024-03-07T05:32:42;98277.25;;;3.25;100.00
73085;BME280;62974;49.460;10.892;2024-03-07T05:35:13;98279.06;;;3.34;100.00
73085;BME280;62974;49.460;10.892;2024-03-07T05:37:43;98281.72;;;3.34;100.00
73085;BME280;62974;49.460;10.892;2024-03-07T05:40:13;98269.97;;;3.37;100.00
73085;BME280;62974;49.460;10.892;2024-03-07T05:42:43;98275.13;;;3.38;100.00
73085;BME280;62974;49.460;10.892;2024-03-07T05:45:10;98272.31;;;3.40;100.00
73085;BME280;62974;49.460;10.892;2024-03-07T05:47:40;98275.13;;;3.38;100.00
73085;BME280;62974;49.460;10.892;2024-03-07T05:50:08;98270.09;;;3.35;100.00
73085;BME280;62974;49.460;10.892;2024-03-07T05:52:37;98279.47;;;3.29;100.00
73085;BME280;62974;49.460;10.892;2024-03-07T05:55:07;98267.31;;;3.37;100.00
73085;BME280;62974;49.460;10.892;2024-03-07T05:57:35;98271.78;;;3.36;100.00
73085;BME280;62974;49.460;10.892;2024-03-07T06:00:07;98267.59;;;3.34;100.00
73085;BME280;62974;49.460;10.892;2024-03-07T06:02:36;98275.81;;;3.30;100.00
73085;BME280;62974;49.460;10.892;2024-03-07T06:05:06;98267.44;;;3.35;100.00
73085;BME280;62974;49.460;10.892;2024-03-07T06:07:38;98273.34;;;3.19;100.00
73085;BME280;62974;49.460;10.892;2024-03-07T06:10:07;98279.91;;;3.25;100.00
73085;BME280;62974;49.460;10.892;2024-03-07T06:12:37;98281.13;;;3.30;100.00
73085;BME280;62974;49.460;10.892;2024-03-07T06:15:15;98272.91;;;3.24;100.00
73085;BME280;62974;49.460;10.892;2024-03-07T06:17:50;98276.41;;;3.24;100.00
73085;BME280;62974;49.460;10.892;2024-03-07T06:20:18;98284.28;;;2.78;100.00
73085;BME280;62974;49.460;10.892;2024-03-07T06:22:51;98277.72;;;1.84;100.00
73085;BME280;62974;49.460;10.892;2024-03-07T06:25:19;98280.09;;;2.66;100.00
73085;BME280;62974;49.460;10.892;2024-03-07T06:27:59;98285.81;;;2.90;100.00
73085;BME280;62974;49.460;10.892;2024-03-07T06:30:37;98283.59;;;1.98;100.00
73085;BME280;62974;49.460;10.892;2024-03-07T06:33:08;98280.72;;;2.20;100.00
73085;BME280;62974;49.460;10.892;2024-03-07T06:35:36;98277.97;;;2.79;100.00
73085;BME280;62974;49.460;10.892;2024-03-07T06:38:05;98272.81;;;3.06;100.00
73085;BME280;62974;49.460;10.892;2024-03-07T06:40:33;98280.78;;;2.77;100.00
73085;BME280;62974;49.460;10.892;2024-03-07T06:43:00;98276.47;;;1.28;100.00
73085;BME280;62974;49.460;10.892;2024-03-07T06:45:30;98272.38;;;2.24;100.00
73085;BME280;62974;49.460;10.892;2024-03-07T06:47:59;98282.06;;;2.73;100.00
73085;BME280;62974;49.460;10.892;2024-03-07T06:50:27;98281.91;;;2.94;100.00
73085;BME280;62974;49.460;10.892;2024-03-07T06:53:03;98281.59;;;3.07;100.00
73085;BME280;62974;49.460;10.892;2024-03-07T06:55:33;98276.88;;;3.10;100.00
73085;BME280;62974;49.460;10.892;2024-03-07T06:58:01;98280.31;;;3.20;100.00
73085;BME280;62974;49.460;10.892;2024-03-07T07:00:31;98275.44;;;3.25;100.00
73085;BME280;62974;49.460;10.892;2024-03-07T07:03:03;98279.72;;;3.36;100.00
73085;BME280;62974;49.460;10.892;2024-03-07T07:05:31;98292.66;;;2.54;100.00
73085;BME280;62974;49.460;10.892;2024-03-07T07:08:00;98287.75;;;2.88;100.00
73085;BME280;62974;49.460;10.892;2024-03-07T07:10:38;98286.75;;;2.31;100.00
73085;BME280;62974;49.460;10.892;2024-03-07T07:13:06;98282.72;;;1.87;100.00
73085;BME280;62974;49.460;10.892;2024-03-07T07:15:34;98287.25;;;2.06;100.00
73085;BME280;62974;49.460;10.892;2024-03-07T07:18:04;98286.38;;;1.86;100.00
73085;BME280;62974;49.460;10.892;2024-03-07T07:20:34;98287.75;;;2.30;100.00
73085;BME280;62974;49.460;10.892;2024-03-07T07:23:04;98280.06;;;3.04;100.00
73085;BME280;62974;49.460;10.892;2024-03-07T07:25:32;98282.47;;;2.69;100.00
73085;BME280;62974;49.460;10.892;2024-03-07T07:28:00;98283.69;;;2.36;100.00
73085;BME280;62974;49.460;10.892;2024-03-07T07:30:31;98280.94;;;2.66;100.00
73085;BME280;62974;49.460;10.892;2024-03-07T07:32:59;98277.13;;;1.81;100.00
73085;BME280;62974;49.460;10.892;2024-03-07T07:35:28;98274.44;;;1.62;100.00
73085;BME280;62974;49.460;10.892;2024-03-07T07:37:57;98277.53;;;2.35;100.00
73085;BME280;62974;49.460;10.892;2024-03-07T07:40:26;98271.28;;;2.36;100.00
73085;BME280;62974;49.460;10.892;2024-03-07T07:42:57;98266.94;;;1.76;100.00
73085;BME280;62974;49.460;10.892;2024-03-07T07:45:25;98267.88;;;2.06;100.00
73085;BME280;62974;49.460;10.892;2024-03-07T07:47:53;98258.88;;;2.75;100.00
73085;BME280;62974;49.460;10.892;2024-03-07T07:50:22;98267.53;;;2.77;100.00
73085;BME280;62974;49.460;10.892;2024-03-07T07:52:53;98265.28;;;2.92;100.00
73085;BME280;62974;49.460;10.892;2024-03-07T07:55:22;98270.59;;;2.63;100.00
73085;BME280;62974;49.460;10.892;2024-03-07T07:57:52;98271.97;;;2.29;100.00
73085;BME280;62974;49.460;10.892;2024-03-07T08:00:21;98265.28;;;2.34;100.00
73085;BME280;62974;49.460;10.892;2024-03-07T08:02:51;98256.66;;;2.61;100.00
73085;BME280;62974;49.460;10.892;2024-03-07T08:05:19;98263.06;;;2.78;100.00
73085;BME280;62974;49.460;10.892;2024-03-07T08:07:49;98259.16;;;2.82;100.00
73085;BME280;62974;49.460;10.892;2024-03-07T08:10:19;98260.28;;;2.89;100.00
73085;BME280;62974;49.460;10.892;2024-03-07T08:12:47;98258.03;;;2.94;100.00
73085;BME280;62974;49.460;10.892;2024-03-07T08:15:15;98255.69;;;2.62;100.00
73085;BME280;62974;49.460;10.892;2024-03-07T08:17:44;98254.00;;;2.80;100.00
73085;BME280;62974;49.460;10.892;2024-03-07T08:20:13;98250.75;;;2.96;100.00
73085;BME280;62974;49.460;10.892;2024-03-07T08:22:42;98251.59;;;3.06;100.00
73085;BME280;62974;49.460;10.892;2024-03-07T08:25:10;98241.22;;;3.22;100.00
73085;BME280;62974;49.460;10.892;2024-03-07T08:27:41;98248.94;;;3.06;100.00
73085;BME280;62974;49.460;10.892;2024-03-07T08:30:10;98237.19;;;3.18;100.00
73085;BME280;62974;49.460;10.892;2024-03-07T08:32:39;98237.13;;;3.38;100.00
73085;BME280;62974;49.460;10.892;2024-03-07T08:35:08;98238.09;;;3.46;100.00
73085;BME280;62974;49.460;10.892;2024-03-07T08:37:38;98236.31;;;3.27;100.00
73085;BME280;62974;49.460;10.892;2024-03-07T08:40:08;98233.88;;;3.44;100.00
73085;BME280;62974;49.460;10.892;2024-03-07T08:42:37;98235.25;;;3.57;100.00
73085;BME280;62974;49.460;10.892;2024-03-07T08:45:07;98231.44;;;3.60;100.00
73085;BME280;62974;49.460;10.892;2024-03-07T08:47:37;98237.84;;;3.67;100.00
73085;BME280;62974;49.460;10.892;2024-03-07T08:50:06;98232.63;;;3.75;100.00
73085;BME280;62974;49.460;10.892;2024-03-07T08:52:35;98236.41;;;3.82;100.00
73085;BME280;62974;49.460;10.892;2024-03-07T08:55:04;98238.75;;;3.85;100.00
73085;BME280;62974;49.460;10.892;2024-03-07T08:57:31;98236.97;;;3.76;100.00
73085;BME280;62974;49.460;10.892;2024-03-07T09:00:02;98235.97;;;4.04;100.00
73085;BME280;62974;49.460;10.892;2024-03-07T09:02:36;98229.91;;;4.12;100.00
73085;BME280;62974;49.460;10.892;2024-03-07T09:05:03;98229.97;;;4.02;100.00
73085;BME280;62974;49.460;10.892;2024-03-07T09:07:31;98228.09;;;4.12;100.00
73085;BME280;62974;49.460;10.892;2024-03-07T09:09:59;98226.91;;;4.24;100.00
73085;BME280;62974;49.460;10.892;2024-03-07T09:12:27;98228.84;;;4.05;100.00
73085;BME280;62974;49.460;10.892;2024-03-07T09:14:57;98225.44;;;4.30;100.00
73085;BME280;62974;49.460;10.892;2024-03-07T09:17:25;98221.28;;;4.28;100.00
73085;BME280;62974;49.460;10.892;2024-03-07T09:19:57;98226.53;;;4.37;100.00
73085;BME280;62974;49.460;10.892;2024-03-07T09:22:24;98223.72;;;4.39;100.00
73085;BME280;62974;49.460;10.892;2024-03-07T09:24:52;98224.56;;;3.94;100.00
73085;BME280;62974;49.460;10.892;2024-03-07T09:27:22;98223.63;;;4.31;100.00
73085;BME280;62974;49.460;10.892;2024-03-07T09:29:51;98226.75;;;4.44;100.00
73085;BME280;62974;49.460;10.892;2024-03-07T09:32:18;98227.38;;;4.38;100.00
73085;BME280;62974;49.460;10.892;2024-03-07T09:34:48;98218.38;;;4.39;100.00
73085;BME280;62974;49.460;10.892;2024-03-07T09:37:18;98223.72;;;4.56;100.00
73085;BME280;62974;49.460;10.892;2024-03-07T09:39:49;98216.56;;;4.74;100.00
73085;BME280;62974;49.460;10.892;2024-03-07T09:42:17;98218.09;;;4.77;100.00
73085;BME280;62974;49.460;10.892;2024-03-07T09:44:45;98222.44;;;4.60;100.00
73085;BME280;62974;49.460;10.892;2024-03-07T09:47:14;98221.22;;;4.55;100.00
73085;BME280;62974;49.460;10.892;2024-03-07T09:49:42;98221.38;;;4.53;100.00
73085;BME280;62974;49.460;10.892;2024-03-07T09:52:13;98221.75;;;4.41;100.00
73085;BME280;62974;49.460;10.892;2024-03-07T09:54:43;98214.13;;;4.63;100.00
73085;BME280;62974;49.460;10.892;2024-03-07T09:57:11;98213.38;;;4.71;100.00
73085;BME280;62974;49.460;10.892;2024-03-07T09:59:42;98216.28;;;4.78;100.00
73085;BME280;62974;49.460;10.892;2024-03-07T10:02:13;98218.22;;;4.93;100.00
73085;BME280;62974;49.460;10.892;2024-03-07T10:04:43;98216.22;;;4.95;100.00
73085;BME280;62974;49.460;10.892;2024-03-07T10:07:16;98216.09;;;4.97;100.00
73085;BME280;62974;49.460;10.892;2024-03-07T10:09:47;98218.69;;;5.14;100.00
73085;BME280;62974;49.460;10.892;2024-03-07T10:12:15;98211.50;;;5.07;100.00
73085;BME280;62974;49.460;10.892;2024-03-07T10:14:48;98211.78;;;5.30;100.00
73085;BME280;62974;49.460;10.892;2024-03-07T10:17:18;98207.13;;;5.57;100.00
73085;BME280;62974;49.460;10.892;2024-03-07T10:19:46;98212.03;;;5.36;100.00
73085;BME280;62974;49.460;10.892;2024-03-07T10:22:14;98205.03;;;5.35;100.00
73085;BME280;62974;49.460;10.892;2024-03-07T10:24:50;98203.81;;;5.97;100.00
73085;BME280;62974;49.460;10.892;2024-03-07T10:27:19;98200.72;;;5.76;100.00
73085;BME280;62974;49.460;10.892;2024-03-07T10:29:47;98198.69;;;5.70;100.00
73085;BME280;62974;49.460;10.892;2024-03-07T10:32:19;98196.91;;;5.79;100.00
73085;BME280;62974;49.460;10.892;2024-03-07T10:34:47;98196.31;;;5.59;100.00
73085;BME280;62974;49.460;10.892;2024-03-07T10:37:15;98200.09;;;5.48;100.00
73085;BME280;62974;49.460;10.892;2024-03-07T10:39:43;98196.31;;;5.59;100.00
73085;BME280;62974;49.460;10.892;2024-03-07T10:42:16;98190.34;;;5.99;100.00
73085;BME280;62974;49.460;10.892;2024-03-07T10:44:47;98187.81;;;5.89;100.00
73085;BME280;62974;49.460;10.892;2024-03-07T10:47:16;98183.53;;;6.04;100.00
73085;BME280;62974;49.460;10.892;2024-03-07T10:49:53;98175.03;;;6.01;100.00
73085;BME280;62974;49.460;10.892;2024-03-07T10:52:29;98171.44;;;6.58;100.00
73085;BME280;62974;49.460;10.892;2024-03-07T10:55:08;98172.94;;;6.85;100.00
73085;BME280;62974;49.460;10.892;2024-03-07T10:57:49;98168.09;;;6.24;100.00
73085;BME280;62974;49.460;10.892;2024-03-07T11:00:21;98173.56;;;6.23;100.00
73085;BME280;62974;49.460;10.892;2024-03-07T11:02:56;98171.91;;;6.30;100.00
73085;BME280;62974;49.460;10.892;2024-03-07T11:05:25;98166.25;;;6.65;100.00
73085;BME280;62974;49.460;10.892;2024-03-07T11:07:58;98164.94;;;6.53;100.00
73085;BME280;62974;49.460;10.892;2024-03-07T11:10:26;98163.78;;;6.64;100.00
73085;BME280;62974;49.460;10.892;2024-03-07T11:12:55;98158.72;;;7.01;100.00
73085;BME280;62974;49.460;10.892;2024-03-07T11:15:25;98153.41;;;6.93;100.00
73085;BME280;62974;49.460;10.892;2024-03-07T11:17:57;98156.44;;;6.49;100.00
73085;BME280;62974;49.460;10.892;2024-03-07T11:20:26;98157.94;;;6.44;100.00
73085;BME280;62974;49.460;10.892;2024-03-07T11:22:55;98155.28;;;6.52;100.00
73085;BME280;62974;49.460;10.892;2024-03-07T11:25:23;98154.94;;;6.39;100.00
73085;BME280;62974;49.460;10.892;2024-03-07T11:27:56;98153.75;;;6.57;100.00
73085;BME280;62974;49.460;10.892;2024-03-07T11:30:27;98165.09;;;6.27;100.00
73085;BME280;62974;49.460;10.892;2024-03-07T11:32:55;98159.91;;;6.34;100.00
73085;BME280;62974;49.460;10.892;2024-03-07T11:35:31;98143.75;;;6.43;100.00
73085;BME280;62974;49.460;10.892;2024-03-07T11:38:02;98135.59;;;6.45;100.00
73085;BME280;62974;49.460;10.892;2024-03-07T11:40:44;98123.53;;;6.89;100.00
73085;BME280;62974;49.460;10.892;2024-03-07T11:43:14;98127.50;;;7.09;100.00
73085;BME280;62974;49.460;10.892;2024-03-07T11:45:42;98127.38;;;7.03;100.00
73085;BME280;62974;49.460;10.892;2024-03-07T11:48:18;98115.53;;;6.97;100.00
73085;BME280;62974;49.460;10.892;2024-03-07T11:50:48;98116.38;;;6.90;100.00
73085;BME280;62974;49.460;10.892;2024-03-07T11:53:16;98120.09;;;6.73;100.00
73085;BME280;62974;49.460;10.892;2024-03-07T11:55:45;98119.25;;;6.72;100.00
73085;BME280;62974;49.460;10.892;2024-03-07T11:58:17;98114.44;;;6.59;100.00
73085;BME280;62974;49.460;10.892;2024-03-07T12:00:49;98117.44;;;6.65;100.00
73085;BME280;62974;49.460;10.892;2024-03-07T12:03:19;98126.94;;;6.59;100.00
73085;BME280;62974;49.460;10.892;2024-03-07T12:05:48;98121.44;;;6.52;100.00
73085;BME280;62974;49.460;10.892;2024-03-07T12:08:18;98110.91;;;6.51;100.00
73085;BME280;62974;49.460;10.892;2024-03-07T12:10:50;98114.28;;;6.37;100.00
73085;BME280;62974;49.460;10.892;2024-03-07T12:13:22;98102.25;;;6.25;100.00
73085;BME280;62974;49.460;10.892;2024-03-07T12:15:51;98110.44;;;6.39;100.00
73085;BME280;62974;49.460;10.892;2024-03-07T12:18:19;98110.91;;;6.51;100.00
73085;BME280;62974;49.460;10.892;2024-03-07T12:20:49;98113.09;;;6.47;100.00
73085;BME280;62974;49.460;10.892;2024-03-07T12:23:22;98102.41;;;6.64;100.00
73085;BME280;62974;49.460;10.892;2024-03-07T12:25:59;98092.75;;;6.54;100.00
73085;BME280;62974;49.460;10.892;2024-03-07T12:28:33;98101.09;;;6.35;100.00
73085;BME280;62974;49.460;10.892;2024-03-07T12:31:02;98098.56;;;6.34;100.00
73085;BME280;62974;49.460;10.892;2024-03-07T12:33:32;98103.41;;;6.46;100.00
73085;BME280;62974;49.460;10.892;2024-03-07T12:36:08;98094.56;;;6.46;100.00
73085;BME280;62974;49.460;10.892;2024-03-07T12:38:37;98097.25;;;6.46;100.00
73085;BME280;62974;49.460;10.892;2024-03-07T12:41:08;98093.41;;;6.56;100.00
73085;BME280;62974;49.460;10.892;2024-03-07T12:43:44;98085.09;;;6.51;100.00
73085;BME280;62974;49.460;10.892;2024-03-07T12:46:13;98087.25;;;6.56;100.00
73085;BME280;62974;49.460;10.892;2024-03-07T12:48:43;98082.75;;;6.16;100.00
73085;BME280;62974;49.460;10.892;2024-03-07T12:51:14;98089.44;;;6.36;100.00
73085;BME280;62974;49.460;10.892;2024-03-07T12:53:47;98085.72;;;6.45;100.00
73085;BME280;62974;49.460;10.892;2024-03-07T12:56:16;98084.59;;;6.40;100.00
73085;BME280;62974;49.460;10.892;2024-03-07T12:58:47;98075.06;;;6.45;100.00
73085;BME280;62974;49.460;10.892;2024-03-07T13:01:16;98088.59;;;6.36;100.00
73085;BME280;62974;49.460;10.892;2024-03-07T13:03:47;98083.06;;;6.37;100.00